Time;durP1;ratioP1;P1;durP2;ratioP2;P2;SDS_P1;SDS_P2;PMS_P1;PMS_P2;Temp;Humidity;BMP_temperature;BMP_pressure;BME280_temperature;BME280_humidity;BME280_pressure;Samples;Min_cycle;Max_cycle;Signal;HPM_P1;HPM_P2
2022/05/04 00:01:17;;;;;;;11.65;2.63;;;6.50;99.90;;;;;;4981137;28;20043;-89
2022/05/04 00:03:46;;;;;;;14.68;2.72;;;6.50;99.90;;;;;;5010713;28;20058;-88
2022/05/04 00:06:14;;;;;;;14.10;3.13;;;7.20;99.90;;;;;;4979410;28;20054;-88
2022/05/04 00:08:40;;;;;;;10.30;2.40;;;6.40;99.90;;;;;;4980866;28;20101;-89
2022/05/04 00:11:09;;;;;;;17.35;5.03;;;6.30;99.90;;;;;;4977998;28;20174;-88
2022/05/04 00:13:37;;;;;;;12.50;3.50;;;6.20;99.90;;;;;;4978826;28;20089;-89
2022/05/04 00:16:03;;;;;;;8.82;2.67;;;6.80;99.90;;;;;;4978467;28;20087;-88
2022/05/04 00:18:30;;;;;;;12.00;2.85;;;6.20;99.90;;;;;;5009185;28;20035;-89
2022/05/04 00:20:56;;;;;;;14.68;3.10;;;6.30;99.90;;;;;;4979078;28;20050;-89
2022/05/04 00:23:22;;;;;;;9.07;2.40;;;6.00;99.90;;;;;;4978604;28;20043;-89
2022/05/04 00:25:48;;;;;;;11.68;2.00;;;6.00;99.90;;;;;;4976957;28;20127;-89
2022/05/04 00:28:14;;;;;;;11.25;2.97;;;6.60;99.90;;;;;;4979735;28;20046;-91
2022/05/04 00:30:40;;;;;;;17.38;3.22;;;5.90;99.90;;;;;;4985831;28;20125;-88
2022/05/04 00:33:05;;;;;;;10.80;3.50;;;5.90;99.90;;;;;;4984295;28;20046;-89
2022/05/04 00:35:31;;;;;;;13.52;2.83;;;6.00;99.90;;;;;;4979669;28;20043;-89
2022/05/04 00:37:57;;;;;;;9.68;2.42;;;5.70;99.90;;;;;;4961360;28;20057;-89
2022/05/04 00:40:22;;;;;;;15.75;3.65;;;6.50;99.90;;;;;;4979105;28;20054;-90
2022/05/04 00:42:48;;;;;;;8.52;2.45;;;5.80;99.90;;;;;;4978793;28;20049;-90
2022/05/04 00:45:14;;;;;;;11.88;3.22;;;5.50;99.90;;;;;;4979669;28;20123;-89
2022/05/04 00:47:39;;;;;;;11.80;2.63;;;5.50;99.90;;;;;;4990739;28;20066;-88
2022/05/04 00:50:09;;;;;;;8.45;2.88;;;5.80;99.90;;;;;;4998815;28;20058;-89
2022/05/04 00:52:36;;;;;;;12.43;2.47;;;4.80;99.90;;;;;;4998949;28;20042;-88
2022/05/04 00:55:05;;;;;;;10.55;2.67;;;5.70;99.90;;;;;;4998970;28;20047;-87
2022/05/04 01:00:17;;;;;;;13.67;3.23;;;5.40;99.90;;;;;;4998933;28;20070;-86
2022/05/04 01:02:45;;;;;;;10.32;2.75;;;5.70;99.90;;;;;;4999022;28;20297;-85
2022/05/04 01:05:11;;;;;;;10.35;2.42;;;5.80;99.90;;;;;;4999184;28;20091;-86
2022/05/04 01:07:38;;;;;;;8.98;2.05;;;5.90;99.90;;;;;;4999038;28;20019;-86
2022/05/04 01:10:05;;;;;;;9.20;2.10;;;5.90;99.90;;;;;;4999022;28;20046;-87
2022/05/04 01:12:31;;;;;;;11.38;2.97;;;5.90;99.90;;;;;;4998894;28;20110;-87
2022/05/04 01:14:58;;;;;;;11.38;2.55;;;6.00;99.90;;;;;;4999013;28;20041;-88
2022/05/04 01:17:23;;;;;;;8.57;2.03;;;6.00;99.90;;;;;;4998765;28;20040;-89
2022/05/04 01:19:49;;;;;;;7.13;2.15;;;6.00;99.90;;;;;;4998763;28;20038;-86
2022/05/04 01:22:15;;;;;;;8.75;2.28;;;5.90;99.90;;;;;;4998687;28;20086;-88
2022/05/04 01:24:40;;;;;;;10.85;2.83;;;5.90;99.90;;;;;;4982014;28;20115;-88
2022/05/04 01:27:12;;;;;;;7.50;2.00;;;6.00;99.90;;;;;;4998827;28;20031;-86
2022/05/04 01:29:38;;;;;;;8.57;2.40;;;5.90;99.90;;;;;;4998843;28;20083;-88
2022/05/04 01:32:04;;;;;;;13.02;2.50;;;5.90;99.90;;;;;;4998552;28;20039;-86
2022/05/04 01:34:29;;;;;;;12.98;2.80;;;5.90;99.90;;;;;;4998643;28;20027;-86
2022/05/04 01:36:55;;;;;;;14.02;3.17;;;5.90;99.90;;;;;;5001005;28;20027;-87
2022/05/04 01:39:21;;;;;;;12.90;2.70;;;6.00;99.90;;;;;;5001415;28;20027;-87
2022/05/04 01:44:33;;;;;;;19.42;2.53;;;6.00;99.90;;;;;;4999632;28;20038;-88
2022/05/04 01:47:01;;;;;;;11.98;3.70;;;6.10;99.90;;;;;;4983932;28;20117;-89
2022/05/04 01:49:27;;;;;;;14.18;3.22;;;6.00;99.90;;;;;;4981343;28;20050;-90
2022/05/04 01:51:53;;;;;;;11.10;2.92;;;6.10;99.90;;;;;;4980992;28;20116;-88
2022/05/04 01:54:19;;;;;;;8.88;2.78;;;6.10;99.90;;;;;;4980868;28;20135;-90
2022/05/04 01:56:45;;;;;;;10.75;1.98;;;6.10;99.90;;;;;;4981286;28;20066;-90
2022/05/04 01:59:10;;;;;;;9.70;2.63;;;6.10;99.90;;;;;;5021727;23;20137;-80
2022/05/04 02:01:39;;;;;;;12.77;3.17;;;6.10;99.90;;;;;;5027815;28;20050;-79
2022/05/04 02:04:05;;;;;;;14.35;2.65;;;6.10;99.90;;;;;;5033254;28;20070;-79
2022/05/04 02:06:31;;;;;;;12.93;3.08;;;6.10;99.90;;;;;;5033764;28;20065;-79
2022/05/04 02:08:57;;;;;;;7.22;2.00;;;6.20;99.90;;;;;;5034286;28;20042;-79
2022/05/04 02:11:23;;;;;;;10.60;2.83;;;6.20;99.90;;;;;;5033070;28;20060;-79
2022/05/04 02:13:49;;;;;;;14.02;3.00;;;6.30;99.90;;;;;;5032570;28;20038;-79
2022/05/04 02:16:15;;;;;;;12.02;3.72;;;6.30;99.90;;;;;;5032202;28;20049;-80
2022/05/04 02:18:41;;;;;;;13.38;2.53;;;6.30;99.90;;;;;;5032338;28;20120;-80
2022/05/04 02:21:06;;;;;;;11.18;2.80;;;6.20;99.90;;;;;;5032304;28;20097;-80
2022/05/04 02:23:32;;;;;;;13.60;3.20;;;6.30;99.90;;;;;;5032455;28;20112;-80
2022/05/04 02:25:57;;;;;;;14.15;3.33;;;6.20;99.90;;;;;;5032882;28;20081;-80
2022/05/04 02:28:23;;;;;;;13.73;3.25;;;6.30;99.90;;;;;;5032973;28;20038;-80
2022/05/04 02:30:48;;;;;;;11.35;2.88;;;6.20;99.90;;;;;;5033800;28;20060;-80
2022/05/04 02:33:14;;;;;;;12.60;3.47;;;6.20;99.90;;;;;;5032491;28;20038;-80
2022/05/04 02:38:24;;;;;;;11.75;3.08;;;6.20;99.90;;;;;;5031533;28;20114;-79
2022/05/04 02:40:50;;;;;;;12.35;2.63;;;6.20;99.90;;;;;;5013106;28;20038;-79
2022/05/04 02:43:16;;;;;;;13.73;3.13;;;6.20;99.90;;;;;;5012609;28;20042;-79
2022/05/04 02:45:41;;;;;;;10.93;2.72;;;6.20;99.90;;;;;;5013405;28;20045;-80
2022/05/04 02:48:08;;;;;;;13.05;2.85;;;6.20;99.90;;;;;;5018531;28;20042;-80
2022/05/04 02:50:35;;;;;;;10.65;2.75;;;6.20;99.90;;;;;;5032588;28;20053;-80
2022/05/04 02:53:00;;;;;;;14.95;3.25;;;6.10;99.90;;;;;;5032631;28;20049;-80
2022/05/04 02:55:26;;;;;;;8.95;2.83;;;6.00;99.90;;;;;;5031258;28;20037;-80
2022/05/04 02:57:51;;;;;;;11.30;3.42;;;6.10;99.90;;;;;;5031763;28;20069;-80
2022/05/04 03:00:18;;;;;;;22.77;3.38;;;6.00;99.90;;;;;;5031499;28;20050;-80
2022/05/04 03:02:44;;;;;;;9.77;3.80;;;5.90;99.90;;;;;;5032277;28;20068;-79
2022/05/04 03:05:11;;;;;;;13.60;3.22;;;5.80;99.90;;;;;;5031998;28;20042;-80
2022/05/04 03:07:37;;;;;;;9.38;3.33;;;5.70;99.90;;;;;;5029842;28;20042;-80
2022/05/04 03:10:05;;;;;;;13.15;2.75;;;5.70;99.90;;;;;;5036293;28;20034;-80
2022/05/04 03:12:30;;;;;;;22.15;3.28;;;5.60;99.90;;;;;;5035730;28;20042;-79
2022/05/04 03:14:56;;;;;;;11.73;3.40;;;5.50;99.90;;;;;;5049151;28;20037;-80
2022/05/04 03:17:22;;;;;;;13.68;4.35;;;5.50;99.90;;;;;;5031486;28;20033;-80
2022/05/04 03:19:47;;;;;;;12.00;2.83;;;5.40;99.90;;;;;;5032686;28;20052;-79
2022/05/04 03:22:13;;;;;;;16.42;3.33;;;5.40;99.90;;;;;;5032051;28;20033;-80
2022/05/04 03:24:39;;;;;;;12.07;3.03;;;5.30;99.90;;;;;;5031638;28;20065;-80
2022/05/04 03:27:05;;;;;;;12.73;3.17;;;5.20;99.90;;;;;;5031453;28;20077;-80
2022/05/04 03:29:31;;;;;;;15.20;3.70;;;5.10;99.90;;;;;;5031684;28;20037;-80
2022/05/04 03:31:57;;;;;;;10.90;2.88;;;5.10;99.90;;;;;;5031643;28;20042;-80
2022/05/04 03:34:23;;;;;;;13.75;3.83;;;5.00;99.90;;;;;;5031387;28;20045;-80
2022/05/04 03:36:48;;;;;;;13.40;3.40;;;5.00;99.90;;;;;;5030803;28;20052;-80
2022/05/04 03:39:14;;;;;;;10.88;3.40;;;5.00;99.90;;;;;;5030905;28;20042;-80
2022/05/04 03:41:40;;;;;;;17.67;3.13;;;5.00;99.90;;;;;;5030157;28;20113;-80
2022/05/04 03:44:06;;;;;;;11.07;3.17;;;5.00;99.90;;;;;;5032264;28;20073;-80
2022/05/04 03:46:45;;;;;;;14.23;3.38;;;5.00;99.90;;;;;;5047057;28;20106;-80
2022/05/04 03:49:12;;;;;;;13.80;2.80;;;5.00;99.90;;;;;;5031447;28;20074;-80
2022/05/04 03:51:38;;;;;;;16.85;3.15;;;5.00;99.90;;;;;;5030894;28;20041;-80
2022/05/04 03:54:04;;;;;;;9.95;3.92;;;4.90;99.90;;;;;;5031268;28;20053;-79
2022/05/04 03:56:29;;;;;;;19.38;3.80;;;4.80;99.90;;;;;;5031116;28;20034;-80
2022/05/04 03:58:55;;;;;;;11.82;3.47;;;4.90;99.90;;;;;;5029868;28;20109;-80
2022/05/04 04:01:20;;;;;;;10.10;3.10;;;4.90;99.90;;;;;;5031699;28;20429;-80
2022/05/04 04:03:46;;;;;;;14.85;3.33;;;4.90;99.90;;;;;;5034938;28;20049;-80
2022/05/04 04:06:12;;;;;;;11.07;3.35;;;5.00;99.90;;;;;;5035551;28;20041;-80
2022/05/04 04:08:38;;;;;;;19.08;3.30;;;5.10;99.90;;;;;;5034536;28;20061;-80
2022/05/04 04:11:03;;;;;;;12.05;3.25;;;5.10;99.90;;;;;;5035010;28;20072;-80
2022/05/04 04:13:29;;;;;;;13.15;3.28;;;5.20;99.90;;;;;;5032745;28;20068;-79
2022/05/04 04:15:56;;;;;;;11.85;3.75;;;5.60;99.90;;;;;;5030747;28;20102;-80
2022/05/04 04:18:26;;;;;;;18.85;3.72;;;5.40;99.90;;;;;;5029997;28;20034;-80
2022/05/04 04:23:38;;;;;;;13.75;3.35;;;5.60;99.90;;;;;;5030345;28;20054;-80
2022/05/04 04:26:05;;;;;;;11.55;3.30;;;5.70;99.90;;;;;;5030687;28;20050;-80
2022/05/04 04:28:31;;;;;;;10.68;3.38;;;5.70;99.90;;;;;;5030166;28;20490;-80
2022/05/04 04:30:56;;;;;;;11.82;3.92;;;5.70;99.90;;;;;;5029477;28;20038;-80
2022/05/04 04:33:26;;;;;;;12.15;3.20;;;5.90;99.90;;;;;;5030053;28;20056;-80
2022/05/04 04:35:52;;;;;;;17.42;3.92;;;5.90;99.90;;;;;;5029554;28;20065;-80
2022/05/04 04:38:18;;;;;;;20.25;4.35;;;6.00;99.90;;;;;;5029448;28;20053;-81
2022/05/04 04:40:44;;;;;;;12.68;3.15;;;6.00;99.90;;;;;;5029440;28;20038;-80
2022/05/04 04:43:10;;;;;;;11.43;2.97;;;6.10;99.90;;;;;;5028512;28;20066;-80
2022/05/04 04:45:36;;;;;;;6.93;2.70;;;6.20;99.90;;;;;;5029084;28;20053;-80
2022/05/04 04:48:01;;;;;;;13.30;3.55;;;6.20;99.90;;;;;;5028506;28;20046;-80
2022/05/04 04:50:27;;;;;;;15.18;4.13;;;6.30;99.90;;;;;;5024581;28;20046;-80
2022/05/04 04:52:52;;;;;;;16.50;5.88;;;6.40;99.90;;;;;;5029026;28;20061;-80
2022/05/04 04:55:18;;;;;;;13.02;3.97;;;6.50;99.90;;;;;;5028976;28;20037;-80
2022/05/04 04:57:43;;;;;;;18.00;4.72;;;6.60;99.90;;;;;;5028628;28;20042;-80
2022/05/04 05:00:09;;;;;;;14.93;3.75;;;6.70;99.90;;;;;;5028202;28;20077;-80
2022/05/04 05:02:35;;;;;;;9.13;3.13;;;6.80;99.90;;;;;;5028993;28;20137;-80
2022/05/04 05:05:02;;;;;;;11.48;4.03;;;6.80;99.90;;;;;;5028276;28;20521;-80
2022/05/04 05:07:28;;;;;;;8.40;3.45;;;6.90;99.90;;;;;;5027142;28;20034;-81
2022/05/04 05:09:54;;;;;;;14.85;4.00;;;7.00;99.90;;;;;;5029482;28;20060;-80
2022/05/04 05:12:23;;;;;;;14.18;3.92;;;7.10;99.90;;;;;;5014073;28;20076;-80
2022/05/04 05:17:35;;;;;;;15.65;3.20;;;7.30;99.90;;;;;;5024132;28;20079;-80
2022/05/04 05:20:03;;;;;;;15.25;3.15;;;7.40;99.90;;;;;;5030264;28;20117;-80
2022/05/04 05:22:29;;;;;;;15.05;3.53;;;7.40;99.90;;;;;;5029519;28;20044;-81
2022/05/04 05:24:55;;;;;;;10.48;2.80;;;7.50;99.90;;;;;;5029456;28;20041;-80
2022/05/04 05:27:22;;;;;;;7.15;2.13;;;7.50;99.90;;;;;;5028775;28;20049;-80
2022/05/04 05:29:48;;;;;;;11.65;3.08;;;7.60;99.90;;;;;;5029327;28;20045;-80
2022/05/04 05:32:13;;;;;;;8.98;2.38;;;7.70;99.90;;;;;;5028737;28;20056;-80
2022/05/04 05:34:39;;;;;;;14.48;2.47;;;7.80;99.90;;;;;;5029560;28;20101;-80
2022/05/04 05:37:04;;;;;;;13.77;3.13;;;7.90;99.90;;;;;;5020807;28;20068;-81
2022/05/04 05:39:30;;;;;;;8.88;3.00;;;7.90;99.90;;;;;;5013148;28;20046;-79
2022/05/04 05:41:56;;;;;;;15.57;3.67;;;8.00;99.90;;;;;;5013891;28;20047;-80
2022/05/04 05:44:21;;;;;;;13.68;2.47;;;8.10;99.90;;;;;;5014536;28;20101;-80
2022/05/04 05:46:47;;;;;;;9.73;2.78;;;8.20;99.90;;;;;;5014207;28;20046;-80
2022/05/04 05:49:12;;;;;;;10.23;2.72;;;8.30;99.90;;;;;;5013640;28;20042;-80
2022/05/04 05:51:38;;;;;;;9.82;3.13;;;8.40;99.90;;;;;;5014593;28;20042;-80
2022/05/04 05:54:03;;;;;;;12.75;2.33;;;8.50;99.90;;;;;;5014023;28;20411;-80
2022/05/04 05:56:29;;;;;;;11.35;2.28;;;8.60;99.90;;;;;;5013494;28;20415;-80
2022/05/04 05:58:55;;;;;;;11.52;2.03;;;8.70;99.90;;;;;;5014894;28;20131;-80
2022/05/04 06:01:20;;;;;;;10.57;2.10;;;8.70;99.90;;;;;;5014469;28;20054;-80
2022/05/04 06:03:46;;;;;;;9.93;2.08;;;8.80;99.90;;;;;;5016100;28;20077;-80
2022/05/04 06:06:12;;;;;;;9.15;2.45;;;8.80;99.90;;;;;;5015790;28;20038;-80
2022/05/04 06:08:37;;;;;;;13.00;2.40;;;8.90;99.90;;;;;;5015933;28;20043;-80
2022/05/04 06:11:04;;;;;;;9.35;2.20;;;8.90;99.90;;;;;;5016150;28;20054;-80
2022/05/04 06:13:30;;;;;;;8.07;2.42;;;8.90;99.90;;;;;;5014974;28;20049;-79
2022/05/04 06:15:56;;;;;;;7.18;2.20;;;8.80;99.90;;;;;;5029562;28;20042;-80
2022/05/04 06:18:21;;;;;;;8.18;2.30;;;8.80;99.90;;;;;;5015163;28;20499;-80
2022/05/04 06:20:47;;;;;;;10.43;3.10;;;8.90;99.90;;;;;;5014336;28;20053;-80
2022/05/04 06:23:12;;;;;;;11.52;2.50;;;8.80;99.90;;;;;;5014181;28;20057;-80
2022/05/04 06:25:38;;;;;;;9.88;2.90;;;8.90;99.90;;;;;;5014869;28;20097;-79
2022/05/04 06:28:04;;;;;;;16.38;2.63;;;8.80;99.90;;;;;;5015214;28;20449;-80
2022/05/04 06:35:58;;;;;;;11.40;3.10;;;9.00;99.90;;;;;;5012319;28;20080;-80
2022/05/04 06:38:23;;;;;;;8.50;2.70;;;9.20;99.90;;;;;;5011521;28;20038;-80
2022/05/04 06:40:49;;;;;;;13.32;2.70;;;9.20;98.50;;;;;;5011423;28;20049;-79
2022/05/04 06:43:15;;;;;;;21.70;3.75;;;9.40;99.90;;;;;;5011741;28;20069;-80
2022/05/04 06:45:41;;;;;;;10.32;2.30;;;9.60;98.80;;;;;;5010248;28;20038;-80
2022/05/04 06:48:07;;;;;;;11.20;2.78;;;9.80;97.90;;;;;;5011807;28;20451;-80
2022/05/04 06:50:32;;;;;;;12.77;2.97;;;10.00;94.50;;;;;;5012940;28;20042;-81
2022/05/04 06:52:58;;;;;;;15.57;3.30;;;10.20;91.30;;;;;;5014395;28;20046;-80
2022/05/04 06:55:24;;;;;;;9.35;2.40;;;10.40;86.50;;;;;;5013419;28;20046;-80
2022/05/04 06:57:50;;;;;;;9.68;2.28;;;10.40;82.50;;;;;;5012699;28;20046;-80
2022/05/04 07:00:15;;;;;;;5.60;1.77;;;10.70;80.40;;;;;;5012699;28;20142;-80
2022/05/04 07:02:41;;;;;;;13.07;2.15;;;11.00;75.40;;;;;;5010389;28;20094;-79
2022/05/04 07:05:08;;;;;;;11.75;2.70;;;11.30;68.80;;;;;;5012849;28;20038;-79
2022/05/04 07:07:34;;;;;;;7.28;2.15;;;11.10;66.40;;;;;;5014855;28;20046;-80
2022/05/04 07:10:00;;;;;;;7.20;1.58;;;11.30;66.00;;;;;;5028595;28;20065;-80
2022/05/04 07:12:26;;;;;;;6.85;1.60;;;11.30;58.00;;;;;;5013587;28;20070;-80
2022/05/04 07:14:54;;;;;;;6.78;1.80;;;10.90;57.90;;;;;;5014212;28;20038;-80
2022/05/04 07:17:19;;;;;;;12.43;2.53;;;11.30;60.00;;;;;;5015290;28;20050;-80
2022/05/04 07:19:46;;;;;;;8.15;1.92;;;11.60;54.60;;;;;;5015017;28;20034;-79
2022/05/04 07:22:12;;;;;;;10.38;2.10;;;11.60;54.90;;;;;;5015734;28;20046;-80
2022/05/04 07:24:38;;;;;;;7.53;1.83;;;11.80;54.60;;;;;;5013564;28;20049;-79
2022/05/04 07:27:04;;;;;;;7.38;2.08;;;11.70;49.80;;;;;;5014172;28;20042;-80
2022/05/04 07:29:29;;;;;;;11.27;2.05;;;11.70;45.20;;;;;;5016959;28;20074;-79
2022/05/04 07:31:55;;;;;;;8.90;2.05;;;11.60;44.30;;;;;;5032267;28;20057;-79
2022/05/04 07:34:20;;;;;;;12.90;2.25;;;11.50;50.70;;;;;;5015531;28;20050;-79
2022/05/04 07:36:46;;;;;;;8.85;1.85;;;11.70;44.00;;;;;;5016410;28;20104;-80
2022/05/04 07:44:40;;;;;;;8.65;1.98;;;12.40;45.20;;;;;;5017880;28;20109;-79
2022/05/04 07:47:07;;;;;;;9.80;2.35;;;12.30;40.30;;;;;;5017162;28;20054;-79
2022/05/04 07:49:32;;;;;;;8.35;2.58;;;12.40;45.50;;;;;;5018038;28;20049;-80
2022/05/04 07:51:58;;;;;;;11.63;2.58;;;12.00;37.50;;;;;;5014574;28;20050;-79
2022/05/04 07:54:24;;;;;;;10.25;1.98;;;12.00;43.00;;;;;;5013647;28;20570;-79
2022/05/04 07:56:49;;;;;;;9.68;1.63;;;12.50;40.60;;;;;;5014620;28;20042;-79
2022/05/04 07:59:15;;;;;;;7.70;1.58;;;12.80;35.50;;;;;;5012201;28;20092;-79
2022/05/04 08:04:25;;;;;;;9.68;2.30;;;13.00;31.50;;;;;;5015805;28;20064;-79
2022/05/04 08:06:50;;;;;;;11.05;2.95;;;12.50;29.80;;;;;;5015072;28;20070;-79
2022/05/04 08:09:17;;;;;;;11.73;1.98;;;12.50;32.00;;;;;;5015001;28;20030;-79
2022/05/04 08:11:43;;;;;;;9.95;2.10;;;12.90;30.90;;;;;;5014533;28;20053;-79
2022/05/04 08:14:10;;;;;;;10.00;1.92;;;12.60;27.20;;;;;;5015555;28;20026;-79
2022/05/04 08:16:37;;;;;;;10.30;1.63;;;12.30;29.80;;;;;;5016420;28;20560;-79
2022/05/04 08:19:03;;;;;;;10.02;1.85;;;12.60;35.40;;;;;;5016571;28;20069;-79
2022/05/04 08:21:29;;;;;;;10.25;1.83;;;13.10;33.70;;;;;;5016585;28;20151;-79
2022/05/04 08:23:55;;;;;;;16.95;2.42;;;13.10;27.20;;;;;;5017084;28;20050;-79
2022/05/04 08:26:20;;;;;;;5.47;1.58;;;13.30;26.80;;;;;;5015807;28;20170;-79
2022/05/04 08:28:46;;;;;;;7.43;2.15;;;13.60;26.20;;;;;;5014725;28;20026;-79
2022/05/04 08:31:12;;;;;;;10.00;2.22;;;13.50;20.40;;;;;;5014146;28;20050;-80
2022/05/04 08:33:38;;;;;;;10.02;1.92;;;13.10;23.60;;;;;;5014367;28;20019;-79
2022/05/04 08:36:04;;;;;;;6.25;2.00;;;12.90;25.00;;;;;;5012033;28;20042;-79
2022/05/04 08:38:29;;;;;;;8.15;1.55;;;13.30;23.00;;;;;;5012839;28;20025;-79
2022/05/04 08:40:56;;;;;;;8.93;2.05;;;13.40;20.50;;;;;;5013048;28;20045;-78
2022/05/04 08:43:24;;;;;;;9.27;1.90;;;13.50;18.10;;;;;;5014065;28;20105;-79
2022/05/04 08:45:53;;;;;;;11.25;1.95;;;13.30;15.60;;;;;;5013078;28;20049;-79
2022/05/04 08:48:20;;;;;;;11.80;2.20;;;12.70;20.40;;;;;;5012183;28;20064;-78
2022/05/04 08:50:46;;;;;;;11.48;2.13;;;12.90;22.70;;;;;;5011099;28;20039;-79
2022/05/04 08:53:13;;;;;;;8.65;2.03;;;14.30;18.70;;;;;;5012618;28;20110;-79
2022/05/04 08:55:39;;;;;;;5.68;1.83;;;14.40;15.60;;;;;;5012550;28;20073;-79
2022/05/04 08:58:08;;;;;;;6.80;2.00;;;15.00;14.90;;;;;;5013282;28;20030;-79
2022/05/04 09:00:33;;;;;;;7.25;1.63;;;15.30;8.70;;;;;;5013399;28;20042;-80
2022/05/04 09:02:59;;;;;;;10.52;1.90;;;14.60;11.50;;;;;;5012369;28;20111;-79
2022/05/04 09:05:27;;;;;;;7.60;2.00;;;14.50;10.90;;;;;;5012629;28;20042;-79
2022/05/04 09:07:55;;;;;;;7.45;2.08;;;14.80;10.20;;;;;;5012103;28;20058;-79
2022/05/04 09:10:27;;;;;;;7.63;1.90;;;14.70;13.40;;;;;;5011091;28;20054;-79
2022/05/04 09:12:55;;;;;;;8.15;2.30;;;16.20;8.30;;;;;;5014756;28;20078;-79
2022/05/04 09:15:29;;;;;;;12.35;2.30;;;15.80;5.80;;;;;;5012583;28;20060;-80
2022/05/04 09:18:00;;;;;;;12.13;1.83;;;15.80;7.00;;;;;;5015358;28;20042;-79
2022/05/04 09:23:24;;;;;;;8.73;2.50;;;14.80;6.20;;;;;;5010551;28;20047;-79
2022/05/04 09:25:56;;;;;;;9.05;1.70;;;14.40;9.80;;;;;;5010160;28;20084;-79
2022/05/04 09:28:26;;;;;;;11.18;2.08;;;15.00;10.50;;;;;;5010225;28;20038;-79
2022/05/04 09:31:06;;;;;;;12.07;2.25;;;14.70;6.80;;;;;;5012544;28;20066;-78
2022/05/04 09:33:34;;;;;;;9.07;1.55;;;14.50;8.40;;;;;;5013091;28;20104;-79
2022/05/04 09:36:03;;;;;;;10.02;1.95;;;14.60;9.20;;;;;;5011034;28;20070;-78
2022/05/04 09:46:52;;;;;;;11.10;1.77;;;14.90;7.60;;;;;;5013304;28;20061;-80
2022/05/04 09:49:20;;;;;;;11.70;2.20;;;15.70;5.40;;;;;;5016716;28;20046;-79
2022/05/04 09:51:51;;;;;;;6.38;1.92;;;15.80;6.70;;;;;;5016344;28;20031;-79
2022/05/04 09:54:20;;;;;;;8.95;2.55;;;16.30;4.20;;;;;;5013387;28;20054;-79
2022/05/04 09:56:48;;;;;;;18.40;3.00;;;16.80;1.80;;;;;;5011030;28;20106;-78
2022/05/04 09:59:15;;;;;;;37.22;4.10;;;16.70;1.00;;;;;;5014822;28;20038;-78
2022/05/04 10:01:42;;;;;;;8.10;2.35;;;17.80;1.00;;;;;;5015572;28;20050;-78
2022/05/04 10:04:08;;;;;;;8.60;2.15;;;18.20;1.00;;;;;;5013791;28;20538;-78
2022/05/04 10:06:35;;;;;;;10.60;2.50;;;18.20;1.00;;;;;;5013764;28;20069;-79
2022/05/04 10:09:02;;;;;;;9.10;1.75;;;17.10;1.00;;;;;;5011998;28;20093;-78
2022/05/04 10:11:30;;;;;;;8.20;2.08;;;17.20;1.00;;;;;;5011314;28;20102;-79
2022/05/04 10:14:01;;;;;;;11.90;2.80;;;16.90;1.00;;;;;;5011622;28;20045;-78
2022/05/04 10:16:31;;;;;;;6.97;2.00;;;16.80;1.00;;;;;;5014237;28;20089;-78
2022/05/04 10:18:59;;;;;;;10.10;2.42;;;17.00;1.00;;;;;;5012768;28;20046;-79
2022/05/04 10:21:25;;;;;;;10.32;2.40;;;17.30;1.00;;;;;;5013035;28;20042;-79
2022/05/04 10:23:57;;;;;;;11.05;2.70;;;17.10;1.00;;;;;;5014627;28;20026;-79
2022/05/04 10:26:37;;;;;;;14.00;2.58;;;17.40;1.00;;;;;;5012731;28;20469;-80
2022/05/04 10:32:47;;;;;;;11.43;2.58;;;16.40;1.00;;;;;;5010435;28;20046;-79
2022/05/04 10:35:37;;;;;;;7.45;2.63;;;16.70;1.00;;;;;;4997479;28;20093;-79
2022/05/04 10:38:26;;;;;;;9.45;2.42;;;17.00;1.00;;;;;;5016395;28;20057;-79
2022/05/04 10:41:02;;;;;;;8.85;2.33;;;15.70;1.00;;;;;;5015787;28;20042;-79
2022/05/04 10:43:43;;;;;;;9.27;2.53;;;14.90;1.90;;;;;;5016459;28;20263;-79
2022/05/04 10:46:18;;;;;;;11.15;2.50;;;14.50;6.10;;;;;;5014844;28;20049;-78
2022/05/04 10:49:05;;;;;;;9.60;2.17;;;14.00;5.90;;;;;;5011777;28;20298;-78
2022/05/04 10:51:35;;;;;;;11.30;2.63;;;13.80;9.50;;;;;;5011732;28;20073;-79
2022/05/04 10:54:12;;;;;;;9.88;2.05;;;14.30;12.10;;;;;;5012912;28;20031;-78
2022/05/04 10:56:46;;;;;;;12.27;2.75;;;14.30;9.50;;;;;;5010381;28;20074;-77
2022/05/04 10:59:24;;;;;;;8.60;2.22;;;14.40;7.90;;;;;;5007065;28;20053;-78
2022/05/04 11:01:49;;;;;;;5.35;1.70;;;14.60;8.50;;;;;;5007687;28;20045;-78
2022/05/04 11:04:22;;;;;;;9.65;2.33;;;15.30;6.90;;;;;;5011392;28;20068;-78
2022/05/04 11:06:53;;;;;;;13.98;2.33;;;15.50;1.10;;;;;;5010769;28;20049;-78
2022/05/04 11:09:21;;;;;;;10.00;2.55;;;15.90;4.40;;;;;;5008347;28;20035;-78
2022/05/04 11:11:52;;;;;;;8.00;2.78;;;16.20;1.00;;;;;;5009688;28;20057;-77
2022/05/04 11:14:22;;;;;;;11.10;3.08;;;15.70;2.40;;;;;;5009273;28;20132;-78
2022/05/04 11:16:49;;;;;;;8.63;2.40;;;15.50;4.80;;;;;;5008705;28;20053;-78
2022/05/04 11:19:15;;;;;;;13.10;3.22;;;16.60;1.20;;;;;;5010777;28;20069;-77
2022/05/04 11:21:41;;;;;;;12.70;2.95;;;16.40;1.00;;;;;;5011765;28;20042;-78
2022/05/04 11:24:09;;;;;;;13.20;3.05;;;16.50;1.00;;;;;;5008183;28;20038;-78
2022/05/04 11:26:41;;;;;;;10.02;2.40;;;16.60;1.00;;;;;;5007528;28;20423;-78
2022/05/04 11:29:21;;;;;;;7.35;2.33;;;17.70;1.00;;;;;;5006407;28;20565;-77
2022/05/04 11:31:58;;;;;;;11.23;2.85;;;18.30;1.00;;;;;;5007174;28;20049;-77
2022/05/04 11:34:26;;;;;;;10.93;2.47;;;18.90;1.00;;;;;;5008317;28;20521;-78
2022/05/04 11:36:53;;;;;;;9.30;2.30;;;19.70;1.00;;;;;;5013217;28;20098;-77
2022/05/04 11:39:21;;;;;;;7.15;2.95;;;18.80;1.00;;;;;;5013709;28;20037;-78
2022/05/04 11:41:49;;;;;;;8.63;2.25;;;17.70;1.00;;;;;;5012087;28;20694;-78
2022/05/04 11:44:15;;;;;;;8.30;2.33;;;17.30;1.00;;;;;;5012136;28;20042;-78
2022/05/04 11:46:44;;;;;;;10.52;3.70;;;16.70;1.00;;;;;;5007219;28;20425;-78
2022/05/04 11:49:11;;;;;;;7.45;2.08;;;16.60;1.00;;;;;;5006453;28;20046;-78
2022/05/04 11:51:37;;;;;;;6.43;2.17;;;17.00;1.00;;;;;;5006408;28;20057;-77
2022/05/04 11:54:04;;;;;;;8.35;2.45;;;18.50;1.00;;;;;;5005711;28;20450;-77
2022/05/04 11:56:30;;;;;;;9.10;2.85;;;19.40;1.00;;;;;;5004422;28;20126;-77
2022/05/04 11:58:55;;;;;;;8.57;2.10;;;20.30;1.00;;;;;;5006882;28;20110;-78
2022/05/04 12:01:22;;;;;;;6.80;2.20;;;20.80;1.00;;;;;;5012299;28;20043;-77
2022/05/04 12:03:48;;;;;;;6.35;1.92;;;20.50;1.00;;;;;;5018262;28;20121;-77
2022/05/04 12:06:14;;;;;;;9.45;2.20;;;21.40;1.00;;;;;;5015423;28;20137;-77
2022/05/04 12:08:40;;;;;;;8.98;2.10;;;20.80;1.00;;;;;;5015034;28;20070;-79
2022/05/04 12:11:07;;;;;;;10.00;2.78;;;21.10;1.00;;;;;;5015728;28;20050;-77
2022/05/04 12:13:36;;;;;;;11.43;2.08;;;21.40;1.00;;;;;;5016352;28;20050;-77
2022/05/04 12:16:02;;;;;;;9.40;2.35;;;21.10;1.00;;;;;;5016972;28;20038;-77
2022/05/04 12:18:29;;;;;;;7.38;2.00;;;21.20;1.00;;;;;;5016672;28;20094;-77
2022/05/04 12:20:56;;;;;;;12.93;2.55;;;20.40;1.00;;;;;;5010874;28;20065;-80
2022/05/04 12:23:23;;;;;;;11.38;2.15;;;20.20;1.00;;;;;;5011251;28;20042;-80
2022/05/04 12:25:48;;;;;;;10.27;2.30;;;21.00;1.00;;;;;;5015645;28;20091;-80
2022/05/04 12:28:15;;;;;;;7.55;2.10;;;21.40;1.00;;;;;;5015252;28;20042;-81
2022/05/04 12:33:29;;;;;;;9.25;2.90;;;19.70;1.00;;;;;;5016123;28;20066;-81
2022/05/04 12:35:59;;;;;;;9.90;2.60;;;20.50;1.00;;;;;;5017088;28;20038;-80
2022/05/04 12:38:25;;;;;;;10.35;2.80;;;20.60;1.00;;;;;;5006971;28;20090;-81
2022/05/04 12:40:51;;;;;;;12.10;2.55;;;20.10;1.00;;;;;;5040711;28;20032;-80
2022/05/04 12:43:17;;;;;;;6.38;1.95;;;20.40;1.00;;;;;;5058015;28;20018;-81
2022/05/04 12:45:44;;;;;;;10.35;2.40;;;20.30;1.00;;;;;;5056500;28;20053;-80
2022/05/04 12:48:10;;;;;;;8.63;2.45;;;20.80;1.00;;;;;;5056434;28;20049;-80
2022/05/04 12:50:37;;;;;;;8.32;2.53;;;19.60;1.00;;;;;;5043064;28;20026;-81
2022/05/04 12:53:05;;;;;;;10.18;2.85;;;19.60;1.00;;;;;;5032846;28;20041;-79
2022/05/04 12:58:15;;;;;;;9.45;2.30;;;19.80;1.00;;;;;;5031048;28;20085;-79
2022/05/04 13:00:42;;;;;;;9.45;2.53;;;21.00;1.00;;;;;;5030733;28;20042;-79
2022/05/04 13:03:11;;;;;;;11.05;2.60;;;21.40;1.00;;;;;;5032194;28;20060;-80
2022/05/04 13:05:38;;;;;;;8.70;2.53;;;21.10;1.00;;;;;;5032594;28;20083;-82
2022/05/04 13:08:04;;;;;;;11.13;2.45;;;20.40;1.00;;;;;;5031519;28;20060;-80
2022/05/04 13:10:32;;;;;;;11.15;2.88;;;20.70;1.00;;;;;;5029623;28;20050;-81
2022/05/04 13:12:58;;;;;;;6.25;2.67;;;20.60;1.00;;;;;;5032698;28;20045;-82
2022/05/04 13:15:24;;;;;;;8.40;2.50;;;20.60;1.00;;;;;;5033748;28;20440;-82
2022/05/04 13:17:50;;;;;;;9.30;2.20;;;20.40;1.00;;;;;;5034514;28;20026;-82
2022/05/04 13:20:16;;;;;;;8.18;2.28;;;20.60;1.00;;;;;;5022816;28;20041;-81
2022/05/04 13:22:41;;;;;;;6.80;1.70;;;19.20;1.00;;;;;;5011887;28;20038;-81
2022/05/04 13:25:08;;;;;;;8.18;2.65;;;20.00;1.00;;;;;;5026213;28;20038;-81
2022/05/04 13:27:34;;;;;;;5.80;2.33;;;20.80;1.00;;;;;;5031901;28;20030;-81
2022/05/04 13:29:59;;;;;;;7.88;2.50;;;21.30;1.00;;;;;;5032493;28;20080;-81
2022/05/04 13:32:25;;;;;;;7.57;2.28;;;22.10;1.00;;;;;;5033439;28;20049;-81
2022/05/04 13:34:50;;;;;;;5.68;1.92;;;22.60;1.00;;;;;;5036221;28;20046;-82